Terminal Aerodrome Forecast
Issued by NWS Grand Forks, ND

Home | Current Version | Previous Version | Graphics & Text | Print | Product List | Glossary On
Versions: 1 2 3 4 5 6 7 8 9 10 11 12 13 14 15
154
FTUS43 KFGF 291120
TAFFAR
TAF
KFAR 291120Z 2912/3012 01007KT P6SM BKN020
     FM291400 31010KT P6SM SCT025
     FM291700 35011KT P6SM SCT200
     FM301100 VRB03KT P6SM SKC=

USA.gov is the U.S. government's official web portal to all federal, state and local government web resources and services.